Time;durP1;ratioP1;P1;durP2;ratioP2;P2;SDS_P1;SDS_P2;PMS_P1;PMS_P2;Temp;Humidity;BMP_temperature;BMP_pressure;BME280_temperature;BME280_humidity;BME280_pressure;Samples;Min_cycle;Max_cycle;Signal;HPM_P1;HPM_P2
2022/05/15 00:01:53;;;;;;;1.40;1.00;;;20.90;61.10;;;;;;5033983;28;20080;-67
2022/05/15 00:04:19;;;;;;;3.60;1.50;;;20.90;61.20;;;;;;5032688;28;20437;-67
2022/05/15 00:06:44;;;;;;;1.75;1.25;;;20.90;61.20;;;;;;5032576;28;20017;-67
2022/05/15 00:09:10;;;;;;;2.13;1.27;;;20.90;61.20;;;;;;5033989;28;20029;-67
2022/05/15 00:11:36;;;;;;;1.58;1.08;;;20.90;61.20;;;;;;5033705;28;20029;-67
2022/05/15 00:14:02;;;;;;;2.40;1.13;;;20.90;61.20;;;;;;5043156;28;20090;-67
2022/05/15 00:16:29;;;;;;;1.88;0.93;;;20.90;61.30;;;;;;5052492;28;20067;-67
2022/05/15 00:18:55;;;;;;;1.70;1.17;;;20.90;61.30;;;;;;5019660;28;20454;-67
2022/05/15 00:21:20;;;;;;;1.83;1.10;;;20.90;61.30;;;;;;5053335;28;20082;-67
2022/05/15 00:23:46;;;;;;;1.65;1.15;;;20.90;61.30;;;;;;5052181;28;20029;-67
2022/05/15 00:26:11;;;;;;;1.55;1.40;;;20.90;61.30;;;;;;5052530;28;20036;-67
2022/05/15 00:28:37;;;;;;;1.70;1.05;;;20.90;61.30;;;;;;5052204;28;20067;-67
2022/05/15 00:31:03;;;;;;;3.35;1.08;;;20.90;61.40;;;;;;5052179;28;20021;-67
2022/05/15 00:33:28;;;;;;;1.88;1.20;;;20.90;61.30;;;;;;5052002;28;20032;-67
2022/05/15 00:35:54;;;;;;;3.05;1.30;;;20.90;61.40;;;;;;5053185;28;20029;-67
2022/05/15 00:38:20;;;;;;;1.80;1.13;;;20.90;61.50;;;;;;5051972;28;20341;-67
2022/05/15 00:40:46;;;;;;;2.13;1.30;;;20.90;61.40;;;;;;5035541;28;20506;-67
2022/05/15 00:43:30;;;;;;;2.78;1.20;;;20.90;61.50;;;;;;5018598;28;20056;-67
2022/05/15 00:45:56;;;;;;;4.75;1.40;;;20.90;61.50;;;;;;5032317;28;20024;-67
2022/05/15 00:48:22;;;;;;;2.08;1.25;;;20.90;61.60;;;;;;5032985;28;20033;-67
2022/05/15 00:50:47;;;;;;;2.05;1.25;;;20.90;61.50;;;;;;5032862;28;20032;-67
2022/05/15 00:53:14;;;;;;;2.15;1.25;;;20.90;61.60;;;;;;5033247;28;20030;-67
2022/05/15 00:55:44;;;;;;;1.30;1.20;;;20.90;61.60;;;;;;5031701;28;20021;-67
2022/05/15 00:58:17;;;;;;;2.33;1.15;;;20.90;61.60;;;;;;5031898;28;20035;-67
2022/05/15 01:00:43;;;;;;;1.85;1.15;;;20.90;61.60;;;;;;5031653;28;20541;-67
2022/05/15 01:03:17;;;;;;;1.35;1.10;;;20.90;61.70;;;;;;5032911;28;20025;-67
2022/05/15 01:05:49;;;;;;;1.38;1.08;;;20.90;61.60;;;;;;5031531;28;20041;-67
2022/05/15 01:08:14;;;;;;;1.40;1.10;;;20.90;61.70;;;;;;5031050;28;20471;-67
2022/05/15 01:10:42;;;;;;;2.58;1.20;;;20.90;61.70;;;;;;5031656;28;20343;-68
2022/05/15 01:13:10;;;;;;;1.90;1.10;;;20.90;61.70;;;;;;5034934;28;20119;-67
2022/05/15 01:15:36;;;;;;;2.03;1.23;;;20.90;61.80;;;;;;5035043;28;20021;-68
2022/05/15 01:18:03;;;;;;;7.82;1.25;;;20.90;61.80;;;;;;5051434;28;20059;-67
2022/05/15 01:20:29;;;;;;;3.58;1.33;;;20.90;61.80;;;;;;5052375;28;20025;-67
2022/05/15 01:22:54;;;;;;;2.25;1.23;;;20.90;61.80;;;;;;5052429;28;20032;-67
2022/05/15 01:25:25;;;;;;;2.58;1.35;;;20.90;61.80;;;;;;5052392;28;20104;-68
2022/05/15 01:28:03;;;;;;;1.75;1.15;;;20.90;61.90;;;;;;5052464;28;20017;-67
2022/05/15 01:30:29;;;;;;;1.83;1.30;;;20.90;61.90;;;;;;5051342;28;20064;-67
2022/05/15 01:32:55;;;;;;;1.92;1.10;;;20.90;61.90;;;;;;5034648;28;20049;-68
2022/05/15 01:35:20;;;;;;;2.58;1.25;;;20.90;61.90;;;;;;5052241;28;20031;-68
2022/05/15 01:37:46;;;;;;;4.65;1.40;;;20.90;61.90;;;;;;5050974;28;20075;-68
2022/05/15 01:40:12;;;;;;;1.30;1.20;;;20.90;61.90;;;;;;5052082;28;20068;-68
2022/05/15 01:42:38;;;;;;;2.25;1.10;;;20.90;61.90;;;;;;5039860;28;20029;-67
2022/05/15 01:45:05;;;;;;;1.48;1.15;;;20.90;62.00;;;;;;5032469;28;20557;-67
2022/05/15 01:47:30;;;;;;;2.17;1.20;;;20.90;62.00;;;;;;5031069;28;20025;-67
2022/05/15 01:49:56;;;;;;;2.03;1.10;;;20.90;62.00;;;;;;5030933;28;20021;-67
2022/05/15 01:52:22;;;;;;;2.00;1.10;;;20.90;62.00;;;;;;5031022;28;20025;-67
2022/05/15 01:54:47;;;;;;;2.70;1.40;;;20.90;62.00;;;;;;5030966;28;20033;-67
2022/05/15 01:57:13;;;;;;;1.67;1.20;;;20.90;62.00;;;;;;5032391;28;20033;-67
2022/05/15 01:59:39;;;;;;;2.30;1.20;;;20.90;62.00;;;;;;5030838;28;20043;-67
2022/05/15 02:02:06;;;;;;;0.80;0.80;;;20.90;62.00;;;;;;5014292;28;20025;-67
2022/05/15 02:04:31;;;;;;;2.58;1.15;;;20.90;62.00;;;;;;5030686;28;20017;-68
2022/05/15 02:06:57;;;;;;;1.20;1.10;;;20.90;62.00;;;;;;5032109;28;20018;-68
2022/05/15 02:09:22;;;;;;;5.05;1.45;;;20.90;62.10;;;;;;5032037;28;20029;-68
2022/05/15 02:11:48;;;;;;;1.70;1.10;;;20.90;62.10;;;;;;5032116;28;20021;-68
2022/05/15 02:14:14;;;;;;;1.92;1.20;;;20.90;62.10;;;;;;5044495;28;20083;-68
2022/05/15 02:16:39;;;;;;;2.40;1.40;;;20.90;62.10;;;;;;5051818;28;20074;-67
2022/05/15 02:19:06;;;;;;;1.98;1.30;;;20.90;62.20;;;;;;5052392;28;20099;-67
2022/05/15 02:21:32;;;;;;;2.38;1.10;;;20.90;62.20;;;;;;5038271;28;20172;-67
2022/05/15 02:23:58;;;;;;;1.33;1.00;;;20.90;62.20;;;;;;5055812;28;20107;-67
2022/05/15 02:26:23;;;;;;;1.83;1.10;;;20.90;62.20;;;;;;5055798;28;20096;-67
2022/05/15 02:28:49;;;;;;;1.77;1.25;;;20.90;62.20;;;;;;5055711;28;20028;-67
2022/05/15 02:31:15;;;;;;;3.38;1.33;;;20.90;62.20;;;;;;5055860;28;20063;-67
2022/05/15 02:33:41;;;;;;;1.75;1.10;;;20.90;62.30;;;;;;5055553;28;20020;-67
2022/05/15 02:36:07;;;;;;;3.35;1.17;;;20.90;62.30;;;;;;5054470;28;20476;-67
2022/05/15 02:38:33;;;;;;;2.78;1.10;;;20.90;62.30;;;;;;5054461;28;20051;-67
2022/05/15 02:40:58;;;;;;;2.03;1.00;;;20.90;62.20;;;;;;5037550;28;20131;-67
2022/05/15 02:43:24;;;;;;;2.33;1.10;;;20.90;62.30;;;;;;5035546;28;20057;-67
2022/05/15 02:45:50;;;;;;;1.33;1.00;;;20.90;62.30;;;;;;5035232;28;20021;-67
2022/05/15 02:51:05;;;;;;;1.52;1.20;;;20.90;62.30;;;;;;5035332;28;20075;-67
2022/05/15 02:53:37;;;;;;;1.60;1.20;;;20.90;62.40;;;;;;5035459;28;20551;-67
2022/05/15 02:56:05;;;;;;;2.33;1.13;;;20.90;62.40;;;;;;5017667;28;20021;-67
2022/05/15 02:58:31;;;;;;;3.00;1.45;;;20.90;62.40;;;;;;5035291;28;20026;-67
2022/05/15 03:00:57;;;;;;;1.48;1.10;;;20.90;62.40;;;;;;5033747;28;20049;-67
2022/05/15 03:03:26;;;;;;;2.13;1.20;;;20.90;62.40;;;;;;5035236;28;20033;-67
2022/05/15 03:05:51;;;;;;;2.30;1.20;;;20.90;62.50;;;;;;5034050;28;20022;-67
2022/05/15 03:08:17;;;;;;;2.47;1.20;;;20.90;62.50;;;;;;5033740;28;20510;-67
2022/05/15 03:10:42;;;;;;;1.70;1.00;;;20.90;62.60;;;;;;5035026;28;20505;-67
2022/05/15 03:13:08;;;;;;;1.50;1.13;;;20.90;62.50;;;;;;5037194;28;20444;-67
2022/05/15 03:15:34;;;;;;;2.45;1.42;;;20.90;62.50;;;;;;5054710;28;20556;-67
2022/05/15 03:17:59;;;;;;;1.20;1.10;;;20.90;62.50;;;;;;5055011;28;20033;-67
2022/05/15 03:20:27;;;;;;;1.30;0.95;;;20.90;62.50;;;;;;5053612;28;20021;-67
2022/05/15 03:22:56;;;;;;;1.33;1.10;;;20.90;62.60;;;;;;5037174;28;20575;-67
2022/05/15 03:25:22;;;;;;;2.35;1.13;;;20.90;62.60;;;;;;5037146;28;20021;-67
2022/05/15 03:27:48;;;;;;;2.25;1.00;;;20.90;62.60;;;;;;5053233;28;20025;-67
2022/05/15 03:30:14;;;;;;;2.15;1.20;;;20.80;62.60;;;;;;5052662;28;20051;-67
2022/05/15 03:32:39;;;;;;;1.63;1.17;;;20.90;62.60;;;;;;5053402;28;20483;-67
2022/05/15 03:35:06;;;;;;;1.13;1.00;;;20.90;62.60;;;;;;5054352;28;20056;-67
2022/05/15 03:37:31;;;;;;;1.65;0.77;;;20.90;62.60;;;;;;5053257;28;20495;-67
2022/05/15 03:39:57;;;;;;;2.15;1.35;;;20.90;62.60;;;;;;5054254;28;20028;-67
2022/05/15 03:42:24;;;;;;;1.30;0.95;;;20.90;62.60;;;;;;5042679;28;20427;-67
2022/05/15 03:44:51;;;;;;;1.10;1.00;;;20.90;62.60;;;;;;5034084;28;20025;-67
2022/05/15 03:47:16;;;;;;;1.48;1.10;;;20.90;62.60;;;;;;5034557;28;20021;-67
2022/05/15 03:49:42;;;;;;;1.33;1.00;;;20.90;62.60;;;;;;5034257;28;20083;-67
2022/05/15 03:52:08;;;;;;;1.15;1.05;;;20.90;62.60;;;;;;5032906;28;20034;-67
2022/05/15 03:54:33;;;;;;;2.40;1.17;;;20.90;62.60;;;;;;5034319;28;20392;-67
2022/05/15 03:56:59;;;;;;;2.58;1.08;;;20.80;62.60;;;;;;5033066;28;20032;-68
2022/05/15 03:59:31;;;;;;;4.25;1.40;;;20.80;62.60;;;;;;5033871;28;20514;-67
2022/05/15 04:01:57;;;;;;;1.48;1.13;;;20.90;62.60;;;;;;5032995;28;20036;-67
2022/05/15 04:04:23;;;;;;;1.13;0.93;;;20.80;62.60;;;;;;5033766;28;20033;-67
2022/05/15 04:06:49;;;;;;;1.30;1.10;;;20.80;62.70;;;;;;5033860;28;20506;-67
2022/05/15 04:09:15;;;;;;;1.80;1.20;;;20.80;62.60;;;;;;5034038;28;20093;-67
2022/05/15 04:11:40;;;;;;;1.60;1.10;;;20.80;62.60;;;;;;5033709;28;20483;-67
2022/05/15 04:14:06;;;;;;;1.58;1.10;;;20.80;62.60;;;;;;5044960;28;20503;-67
2022/05/15 04:16:32;;;;;;;3.85;1.02;;;20.80;62.60;;;;;;5053701;28;20037;-67
2022/05/15 04:18:58;;;;;;;1.75;1.13;;;20.80;62.70;;;;;;5053712;28;20028;-67
2022/05/15 04:21:23;;;;;;;1.80;1.20;;;20.80;62.60;;;;;;5035735;28;20483;-67
2022/05/15 04:23:49;;;;;;;1.70;1.15;;;20.80;62.70;;;;;;5052277;28;20031;-67
2022/05/15 04:26:15;;;;;;;2.13;1.02;;;20.80;62.70;;;;;;5053555;28;20029;-67
2022/05/15 04:28:41;;;;;;;1.42;1.30;;;20.90;62.80;;;;;;5052039;28;20024;-67
2022/05/15 04:31:07;;;;;;;5.53;1.10;;;20.80;62.70;;;;;;5053585;28;20021;-67
2022/05/15 04:33:34;;;;;;;2.42;0.90;;;20.80;62.70;;;;;;5052046;28;20033;-67
2022/05/15 04:35:59;;;;;;;4.78;1.00;;;20.80;62.70;;;;;;5052197;28;20025;-67
2022/05/15 04:38:25;;;;;;;1.65;0.98;;;20.80;62.70;;;;;;5052095;28;20082;-67
2022/05/15 04:40:52;;;;;;;2.72;1.10;;;20.80;62.80;;;;;;5051967;28;20116;-67
2022/05/15 04:43:18;;;;;;;2.13;1.10;;;20.80;63.10;;;;;;5034422;28;20036;-67
2022/05/15 04:45:43;;;;;;;1.13;0.95;;;20.80;62.80;;;;;;5033120;28;20025;-67
2022/05/15 04:48:10;;;;;;;1.27;0.90;;;20.80;62.80;;;;;;5033171;28;20391;-67
2022/05/15 04:50:37;;;;;;;3.60;1.45;;;20.80;62.80;;;;;;5032197;28;20024;-67
2022/05/15 04:53:04;;;;;;;2.45;1.08;;;20.80;62.80;;;;;;5031846;28;20025;-67
2022/05/15 04:55:29;;;;;;;2.35;1.15;;;20.80;62.90;;;;;;5032942;28;20025;-67
2022/05/15 04:57:55;;;;;;;2.83;1.10;;;20.80;62.90;;;;;;5032852;28;20052;-67
2022/05/15 05:00:20;;;;;;;2.33;1.05;;;20.80;62.90;;;;;;5033211;28;20104;-67
2022/05/15 05:02:46;;;;;;;3.13;1.17;;;20.80;62.90;;;;;;5032639;28;20030;-67
2022/05/15 05:05:12;;;;;;;3.53;0.90;;;20.80;62.90;;;;;;5031733;28;20113;-67
2022/05/15 05:07:38;;;;;;;3.63;1.30;;;20.80;62.90;;;;;;5031708;28;20032;-67
2022/05/15 05:10:04;;;;;;;3.25;1.10;;;20.80;63.00;;;;;;5032627;28;20104;-67
2022/05/15 05:12:30;;;;;;;2.13;0.80;;;20.80;63.00;;;;;;5031387;28;20200;-67
2022/05/15 05:14:58;;;;;;;3.05;1.10;;;20.80;63.00;;;;;;5050776;28;20135;-67
2022/05/15 05:17:24;;;;;;;1.08;0.85;;;20.80;63.00;;;;;;5052800;28;20035;-67
2022/05/15 05:19:49;;;;;;;1.95;1.23;;;20.80;63.00;;;;;;5052590;28;20060;-67
2022/05/15 05:22:15;;;;;;;4.65;1.40;;;20.80;63.00;;;;;;5052504;28;20071;-67
2022/05/15 05:24:40;;;;;;;1.35;1.15;;;20.80;63.00;;;;;;5052468;28;20029;-67
2022/05/15 05:27:06;;;;;;;3.30;1.27;;;20.80;63.00;;;;;;5052189;28;20017;-68
2022/05/15 05:29:32;;;;;;;2.15;1.17;;;20.80;63.00;;;;;;5052490;28;20025;-68
2022/05/15 05:31:57;;;;;;;1.77;0.90;;;20.80;63.00;;;;;;5051272;28;20025;-67
2022/05/15 05:34:23;;;;;;;2.70;1.00;;;20.80;63.00;;;;;;5052414;28;20033;-67
2022/05/15 05:36:49;;;;;;;2.58;1.10;;;20.80;63.10;;;;;;5051167;28;20155;-67
2022/05/15 05:39:14;;;;;;;1.73;1.00;;;20.80;63.10;;;;;;5051171;28;20075;-67
2022/05/15 05:41:40;;;;;;;1.73;0.85;;;20.80;63.10;;;;;;5047667;28;20095;-67
2022/05/15 05:44:05;;;;;;;1.90;1.20;;;20.80;63.10;;;;;;5031020;28;20041;-67
2022/05/15 05:46:31;;;;;;;3.97;1.08;;;20.80;63.10;;;;;;5032496;28;20017;-67
2022/05/15 05:48:57;;;;;;;3.20;1.15;;;20.80;63.10;;;;;;5032277;28;20025;-67
2022/05/15 05:51:23;;;;;;;2.65;0.90;;;20.80;63.10;;;;;;5031084;28;20037;-67
2022/05/15 05:53:48;;;;;;;2.38;0.90;;;20.80;63.10;;;;;;5032028;28;20064;-67
2022/05/15 05:56:14;;;;;;;2.63;1.05;;;20.80;63.20;;;;;;5030699;28;20449;-67
2022/05/15 05:58:40;;;;;;;1.95;1.02;;;20.80;63.20;;;;;;5031054;28;20022;-67
2022/05/15 06:01:06;;;;;;;1.23;1.00;;;20.80;63.20;;;;;;5030892;28;20075;-67
2022/05/15 06:06:15;;;;;;;1.58;0.98;;;20.80;63.20;;;;;;5031024;28;20451;-67
2022/05/15 06:08:42;;;;;;;2.03;1.17;;;20.80;63.20;;;;;;5031069;28;20018;-67
2022/05/15 06:11:09;;;;;;;4.45;1.30;;;20.80;63.20;;;;;;5031748;28;20510;-67
2022/05/15 06:13:34;;;;;;;1.63;1.00;;;20.80;63.20;;;;;;5038975;28;20502;-67
2022/05/15 06:16:00;;;;;;;1.10;1.00;;;20.80;63.20;;;;;;5050750;28;20029;-67
2022/05/15 06:18:26;;;;;;;1.48;0.98;;;20.80;63.20;;;;;;5052064;28;20061;-67
2022/05/15 06:20:52;;;;;;;1.75;0.90;;;20.80;63.20;;;;;;5050731;28;20078;-68
2022/05/15 06:23:18;;;;;;;1.50;0.93;;;20.80;63.20;;;;;;5051820;28;20474;-68
2022/05/15 06:25:44;;;;;;;2.22;1.20;;;20.80;63.30;;;;;;5050589;28;20491;-67
2022/05/15 06:28:09;;;;;;;2.75;1.00;;;20.80;63.30;;;;;;5050521;28;20020;-68
2022/05/15 06:30:37;;;;;;;2.97;1.08;;;20.80;63.30;;;;;;5050730;28;20013;-68
2022/05/15 06:33:04;;;;;;;1.40;1.00;;;20.80;63.30;;;;;;5034512;28;20033;-68
2022/05/15 06:35:29;;;;;;;1.35;0.93;;;20.80;63.40;;;;;;5051843;28;20013;-68
2022/05/15 06:37:55;;;;;;;1.42;1.10;;;20.80;63.30;;;;;;5051625;28;20029;-68
2022/05/15 06:40:21;;;;;;;1.42;0.90;;;20.80;63.30;;;;;;5051391;28;20029;-67
2022/05/15 06:42:46;;;;;;;3.00;1.10;;;20.80;63.30;;;;;;5038284;28;20041;-67
2022/05/15 06:45:13;;;;;;;0.80;0.80;;;20.80;63.30;;;;;;5031626;28;20021;-67
2022/05/15 06:47:38;;;;;;;1.27;0.98;;;20.80;63.40;;;;;;5030856;28;20083;-67
2022/05/15 06:50:05;;;;;;;1.08;0.90;;;20.80;63.30;;;;;;5031585;28;20052;-67
2022/05/15 06:52:30;;;;;;;2.22;1.02;;;20.80;63.40;;;;;;5030301;28;20026;-67
2022/05/15 06:54:56;;;;;;;2.05;1.00;;;20.80;63.40;;;;;;5031729;28;20037;-67
2022/05/15 06:57:32;;;;;;;1.58;1.00;;;20.80;63.40;;;;;;5031710;28;20036;-67
2022/05/15 06:59:59;;;;;;;1.20;0.90;;;20.80;63.40;;;;;;5031639;28;20021;-67
2022/05/15 07:02:25;;;;;;;1.70;1.20;;;20.80;63.40;;;;;;5030199;28;20022;-68
2022/05/15 07:04:52;;;;;;;2.03;1.00;;;20.80;63.40;;;;;;5030361;28;20018;-68
2022/05/15 07:07:18;;;;;;;1.20;1.10;;;20.80;63.40;;;;;;5034806;28;20108;-67
2022/05/15 07:09:43;;;;;;;1.42;1.05;;;20.80;63.40;;;;;;5033866;28;20025;-68
2022/05/15 07:12:09;;;;;;;2.33;1.10;;;20.80;63.40;;;;;;5034776;28;20030;-68
2022/05/15 07:14:35;;;;;;;2.10;0.93;;;20.80;63.50;;;;;;5050494;28;20387;-68
2022/05/15 07:17:00;;;;;;;2.42;0.98;;;20.80;63.50;;;;;;5054679;28;20384;-68
2022/05/15 07:19:26;;;;;;;1.20;0.88;;;20.80;63.40;;;;;;5054864;28;20025;-68
2022/05/15 07:21:52;;;;;;;2.05;1.05;;;20.70;63.50;;;;;;5054481;28;20036;-68
2022/05/15 07:24:17;;;;;;;1.92;0.90;;;20.80;63.40;;;;;;5054604;28;20017;-67
2022/05/15 07:26:46;;;;;;;2.13;1.00;;;20.80;63.50;;;;;;5054612;28;20024;-68
2022/05/15 07:29:12;;;;;;;1.65;0.85;;;20.80;63.50;;;;;;5053507;28;20023;-68
2022/05/15 07:31:38;;;;;;;1.38;0.95;;;20.80;63.50;;;;;;5054517;28;20079;-68
2022/05/15 07:34:04;;;;;;;1.58;1.10;;;20.80;63.50;;;;;;5046331;28;20452;-68
2022/05/15 07:36:30;;;;;;;1.77;1.00;;;20.80;63.50;;;;;;5039221;28;20104;-67
2022/05/15 07:38:55;;;;;;;1.20;0.90;;;20.80;63.50;;;;;;5039790;28;20075;-67
2022/05/15 07:41:21;;;;;;;2.08;1.08;;;20.80;63.50;;;;;;5032358;28;20539;-67
2022/05/15 07:43:47;;;;;;;2.88;1.00;;;20.80;63.60;;;;;;5032334;28;20041;-67
2022/05/15 07:46:12;;;;;;;2.33;0.90;;;20.80;63.60;;;;;;5033715;28;20032;-68
2022/05/15 07:48:38;;;;;;;3.95;1.00;;;20.80;63.60;;;;;;5033820;28;20037;-67
2022/05/15 07:51:03;;;;;;;3.28;0.90;;;20.80;63.60;;;;;;5032033;28;20029;-68
2022/05/15 07:53:29;;;;;;;2.35;1.10;;;20.80;63.60;;;;;;5032446;28;20051;-67
2022/05/15 07:55:55;;;;;;;1.63;1.00;;;20.80;63.60;;;;;;5033657;28;20021;-68
2022/05/15 07:58:23;;;;;;;2.83;1.00;;;20.80;63.60;;;;;;5032306;28;20022;-68
2022/05/15 08:00:52;;;;;;;2.50;1.15;;;20.80;63.60;;;;;;5032356;28;20030;-68
2022/05/15 08:03:18;;;;;;;1.65;0.98;;;20.80;63.60;;;;;;5033444;28;20014;-67
2022/05/15 08:08:27;;;;;;;1.40;1.10;;;20.80;63.60;;;;;;5033539;28;20052;-67
2022/05/15 08:10:53;;;;;;;4.75;1.25;;;20.80;63.70;;;;;;5033314;28;20412;-68
2022/05/15 08:13:21;;;;;;;1.20;0.80;;;20.80;63.70;;;;;;5037957;28;20067;-67
2022/05/15 08:15:47;;;;;;;1.13;0.75;;;20.80;63.70;;;;;;5053188;28;20036;-67
2022/05/15 08:23:56;;;;;;;1.55;1.02;;;20.80;63.80;;;;;;5037962;28;20032;-68
2022/05/15 08:26:22;;;;;;;1.35;0.80;;;20.80;63.70;;;;;;5052848;28;20398;-69
2022/05/15 08:28:48;;;;;;;2.30;0.98;;;20.80;63.80;;;;;;5050736;28;20024;-66
2022/05/15 08:31:17;;;;;;;3.70;1.30;;;20.80;63.80;;;;;;5043697;28;20029;-67
2022/05/15 08:33:43;;;;;;;4.28;1.30;;;20.80;63.60;;;;;;5037641;28;20099;-66
2022/05/15 08:36:08;;;;;;;3.67;1.40;;;20.80;63.60;;;;;;5020605;28;20189;-67
2022/05/15 08:38:35;;;;;;;2.88;1.75;;;20.80;63.60;;;;;;5032717;28;20061;-67
2022/05/15 08:41:31;;;;;;;7.30;2.25;;;20.70;63.50;;;;;;5034676;28;20463;-67
2022/05/15 08:44:18;;;;;;;4.63;2.25;;;20.80;63.60;;;;;;5030790;28;20099;-67
2022/05/15 08:46:51;;;;;;;5.43;2.78;;;20.80;63.50;;;;;;5030560;28;20025;-67
2022/05/15 08:49:34;;;;;;;4.82;2.42;;;20.80;63.70;;;;;;5031458;28;20083;-68
2022/05/15 08:52:01;;;;;;;;;;;20.80;63.70;;;;;;5035573;28;20017;-67
2022/05/15 08:54:28;;;;;;;7.28;2.15;;;20.80;63.60;;;;;;5040236;28;20414;-67
2022/05/15 08:56:53;;;;;;;3.42;2.60;;;20.80;64.00;;;;;;5015255;28;20176;-69
2022/05/15 08:59:22;;;;;;;3.65;2.17;;;20.80;63.80;;;;;;5015170;28;20451;-70
2022/05/15 09:01:48;;;;;;;4.32;2.47;;;20.80;63.70;;;;;;5031349;28;20053;-70
2022/05/15 09:04:14;;;;;;;3.70;2.33;;;20.80;63.70;;;;;;5031110;28;20068;-70
2022/05/15 09:06:48;;;;;;;3.13;2.17;;;20.90;63.60;;;;;;5032688;28;20029;-70
2022/05/15 09:09:29;;;;;;;5.45;2.35;;;20.90;63.60;;;;;;5031300;28;20555;-69
2022/05/15 09:12:20;;;;;;;3.25;2.40;;;20.90;63.40;;;;;;5032632;28;20029;-68
2022/05/15 09:15:04;;;;;;;4.25;2.53;;;20.90;63.40;;;;;;5047897;28;20029;-68
2022/05/15 09:18:05;;;;;;;5.18;2.30;;;20.90;63.50;;;;;;5035673;28;20036;-68
2022/05/15 09:20:48;;;;;;;2.78;2.22;;;21.00;63.30;;;;;;5017035;28;20053;-68
2022/05/15 09:23:29;;;;;;;5.55;2.40;;;21.00;63.40;;;;;;5033721;28;20049;-69
2022/05/15 09:26:19;;;;;;;3.70;2.60;;;21.00;63.50;;;;;;5033858;28;20048;-69
2022/05/15 09:28:51;;;;;;;4.47;2.30;;;21.00;63.40;;;;;;5049603;28;20040;-70
2022/05/15 09:31:25;;;;;;;4.43;2.33;;;21.00;63.50;;;;;;5033274;28;20017;-69
2022/05/15 09:34:02;;;;;;;4.57;2.30;;;21.00;63.40;;;;;;5033261;28;20527;-69
2022/05/15 09:36:29;;;;;;;3.10;2.40;;;21.00;63.40;;;;;;5033328;28;20530;-67
2022/05/15 09:39:14;;;;;;;5.25;2.20;;;21.00;63.40;;;;;;5033241;28;20037;-67
2022/05/15 09:44:27;;;;;;;3.40;2.40;;;21.00;63.30;;;;;;5009883;28;20038;-66
2022/05/15 09:47:13;;;;;;;3.05;2.38;;;21.00;63.30;;;;;;5009881;28;20044;-66
2022/05/15 09:49:39;;;;;;;5.22;2.42;;;21.10;63.10;;;;;;5010097;28;20033;-66
2022/05/15 09:52:17;;;;;;;3.22;2.53;;;21.10;63.30;;;;;;5010142;28;20124;-67
2022/05/15 09:54:45;;;;;;;5.25;2.20;;;21.10;63.20;;;;;;4997562;28;20516;-67
2022/05/15 09:57:15;;;;;;;2.85;2.55;;;21.10;63.20;;;;;;4990336;28;20042;-67
2022/05/15 09:59:41;;;;;;;3.03;2.30;;;21.10;63.20;;;;;;4974317;28;20167;-67
2022/05/15 10:02:16;;;;;;;4.25;2.60;;;21.10;63.20;;;;;;4957839;28;20054;-68
2022/05/15 10:04:41;;;;;;;4.18;2.80;;;21.10;63.10;;;;;;4959181;28;20022;-69
2022/05/15 10:07:26;;;;;;;5.32;2.90;;;21.20;63.20;;;;;;4974130;28;20039;-67
2022/05/15 10:09:52;;;;;;;5.40;2.50;;;21.20;63.10;;;;;;4960565;28;20058;-67
2022/05/15 10:12:29;;;;;;;4.78;2.50;;;21.20;63.10;;;;;;4994480;28;20607;-67
2022/05/15 10:14:59;;;;;;;4.32;2.72;;;21.20;63.10;;;;;;4974508;28;20504;-67
2022/05/15 10:17:25;;;;;;;3.83;2.45;;;21.20;63.10;;;;;;4993255;28;20137;-67
2022/05/15 10:20:13;;;;;;;4.85;2.42;;;21.20;63.10;;;;;;4993637;28;20038;-67
2022/05/15 10:22:49;;;;;;;3.55;2.60;;;21.30;62.90;;;;;;5028813;28;20111;-67
2022/05/15 10:25:21;;;;;;;3.45;2.30;;;21.30;63.00;;;;;;5029777;28;20101;-67
2022/05/15 10:27:54;;;;;;;3.40;2.40;;;21.30;63.00;;;;;;5033016;28;20120;-66
2022/05/15 10:30:24;;;;;;;4.35;2.60;;;21.30;63.00;;;;;;5052132;28;20056;-67
2022/05/15 10:32:56;;;;;;;4.30;2.42;;;21.30;63.10;;;;;;5023392;28;20029;-67
2022/05/15 10:35:31;;;;;;;5.88;3.65;;;21.30;63.10;;;;;;5041142;28;20056;-67
2022/05/15 10:38:14;;;;;;;8.38;3.70;;;21.30;63.00;;;;;;5017968;28;20036;-67
2022/05/15 10:40:54;;;;;;;6.63;3.80;;;21.30;62.90;;;;;;5036156;28;20037;-67
2022/05/15 10:43:25;;;;;;;4.63;3.50;;;21.30;62.90;;;;;;5017281;28;20040;-67
2022/05/15 10:46:10;;;;;;;5.45;3.67;;;21.30;62.90;;;;;;5034818;28;20021;-67
2022/05/15 10:49:09;;;;;;;12.70;8.90;;;21.30;62.90;;;;;;5035026;28;20030;-67
2022/05/15 10:51:38;;;;;;;24.85;14.05;;;21.30;62.90;;;;;;5034871;28;20104;-67
2022/05/15 10:57:34;;;;;;;29.67;17.42;;;21.40;63.00;;;;;;5035164;28;20072;-69
2022/05/15 11:00:06;;;;;;;28.55;16.67;;;21.30;62.90;;;;;;5034596;28;20029;-70
2022/05/15 11:02:34;;;;;;;33.33;17.33;;;21.30;63.10;;;;;;5017715;28;20032;-69
2022/05/15 11:05:11;;;;;;;24.27;15.43;;;21.30;63.20;;;;;;5034709;28;20169;-68
2022/05/15 11:07:47;;;;;;;22.10;13.75;;;21.30;63.00;;;;;;5033281;28;20071;-68
2022/05/15 11:10:44;;;;;;;22.45;12.70;;;21.30;63.00;;;;;;5034536;28;20079;-69
2022/05/15 11:13:50;;;;;;;17.95;10.48;;;21.40;63.00;;;;;;5037016;28;20029;-68
2022/05/15 11:16:25;;;;;;;14.02;9.02;;;21.30;62.90;;;;;;5053864;28;20048;-69
2022/05/15 11:19:10;;;;;;;13.18;8.57;;;21.30;63.10;;;;;;5054321;28;20550;-69
2022/05/15 11:22:07;;;;;;;11.85;7.35;;;21.30;63.10;;;;;;5054128;28;20070;-69
2022/05/15 11:24:44;;;;;;;8.95;5.97;;;21.30;62.90;;;;;;5053014;28;20025;-70
2022/05/15 11:27:24;;;;;;;10.57;5.82;;;21.30;63.10;;;;;;5052965;28;20055;-69
2022/05/15 11:29:51;;;;;;;9.50;4.63;;;21.40;63.10;;;;;;5053943;28;20487;-68
2022/05/15 11:32:32;;;;;;;6.53;4.80;;;21.30;63.20;;;;;;5036402;28;20031;-68
2022/05/15 11:35:13;;;;;;;5.93;4.28;;;21.40;63.10;;;;;;5053947;28;20028;-67
2022/05/15 11:37:40;;;;;;;6.63;3.85;;;21.40;63.10;;;;;;5053845;28;20021;-67
2022/05/15 11:40:28;;;;;;;4.32;3.47;;;21.30;63.20;;;;;;5052535;28;20033;-68
2022/05/15 11:42:54;;;;;;;6.78;3.85;;;21.50;63.00;;;;;;5037949;28;20037;-68
2022/05/15 11:45:32;;;;;;;7.05;3.65;;;21.40;63.20;;;;;;5032845;28;20036;-68
2022/05/15 11:48:13;;;;;;;3.88;3.22;;;21.40;63.10;;;;;;5033859;28;20500;-68
2022/05/15 11:50:50;;;;;;;5.97;3.40;;;21.40;63.20;;;;;;5033833;28;20029;-67
2022/05/15 11:53:23;;;;;;;4.43;3.25;;;21.40;63.10;;;;;;5032440;28;20022;-68
2022/05/15 11:55:49;;;;;;;3.65;2.97;;;21.40;63.20;;;;;;5016047;28;20407;-67
2022/05/15 11:58:26;;;;;;;5.18;2.72;;;21.40;63.20;;;;;;5032308;28;20479;-68
2022/05/15 12:01:12;;;;;;;4.85;3.00;;;21.50;63.20;;;;;;5032559;28;20049;-68
2022/05/15 12:03:58;;;;;;;3.67;3.20;;;21.50;63.00;;;;;;5033269;28;20020;-68
2022/05/15 12:06:31;;;;;;;3.47;2.80;;;21.50;63.20;;;;;;5032471;28;20040;-67
2022/05/15 12:09:16;;;;;;;3.20;2.83;;;21.50;63.30;;;;;;5032415;28;20064;-67
2022/05/15 12:11:45;;;;;;;5.65;2.75;;;21.50;63.20;;;;;;5033014;28;20025;-67
2022/05/15 12:14:26;;;;;;;6.20;3.13;;;21.50;63.30;;;;;;5043992;28;20017;-67
2022/05/15 12:16:59;;;;;;;4.35;2.78;;;21.50;63.30;;;;;;5053401;28;20029;-67
2022/05/15 12:19:35;;;;;;;5.57;2.88;;;21.50;63.40;;;;;;5052104;28;20017;-68
2022/05/15 12:22:11;;;;;;;5.13;3.20;;;21.50;63.30;;;;;;5036800;28;20479;-67
2022/05/15 12:24:39;;;;;;;4.10;3.08;;;21.60;63.30;;;;;;5035536;28;20479;-67
2022/05/15 12:27:19;;;;;;;3.40;3.08;;;21.60;63.40;;;;;;5052815;28;20052;-67
2022/05/15 12:29:45;;;;;;;5.13;3.10;;;21.60;63.40;;;;;;5051657;28;20426;-67
2022/05/15 12:32:21;;;;;;;5.38;3.50;;;21.60;63.50;;;;;;5053008;28;20025;-67
2022/05/15 12:34:46;;;;;;;4.53;3.30;;;21.60;63.50;;;;;;5053405;28;20029;-67
2022/05/15 12:37:26;;;;;;;6.93;3.63;;;21.60;63.50;;;;;;5035985;28;20029;-67
2022/05/15 12:39:52;;;;;;;5.38;3.20;;;21.60;63.50;;;;;;5052522;28;20056;-67
2022/05/15 12:42:34;;;;;;;4.80;3.47;;;21.60;63.60;;;;;;5043384;28;20045;-67
2022/05/15 12:45:10;;;;;;;5.75;3.25;;;21.60;63.50;;;;;;5032333;28;20056;-67
2022/05/15 12:47:36;;;;;;;7.07;3.67;;;21.60;63.60;;;;;;5031748;28;20030;-66
2022/05/15 12:50:15;;;;;;;7.07;3.30;;;21.60;63.70;;;;;;5031484;28;20462;-67
2022/05/15 12:52:41;;;;;;;5.65;3.10;;;21.70;63.70;;;;;;5031452;28;20026;-67
2022/05/15 12:55:10;;;;;;;5.15;3.25;;;21.70;63.70;;;;;;5031334;28;20060;-67
2022/05/15 12:57:44;;;;;;;4.45;3.55;;;21.70;63.70;;;;;;5031197;28;20026;-67
2022/05/15 13:00:12;;;;;;;3.72;3.30;;;21.70;63.70;;;;;;5031233;28;20479;-68
2022/05/15 13:02:38;;;;;;;4.80;3.78;;;21.70;63.80;;;;;;5030780;28;20029;-67
2022/05/15 13:05:18;;;;;;;7.88;4.20;;;21.70;63.80;;;;;;5032116;28;20487;-67
2022/05/15 13:07:44;;;;;;;8.20;3.97;;;21.70;63.80;;;;;;5031029;28;20029;-67
2022/05/15 13:10:18;;;;;;;6.35;3.95;;;21.70;63.90;;;;;;5032200;28;20018;-67
2022/05/15 13:12:55;;;;;;;4.50;3.83;;;21.70;63.90;;;;;;5031154;28;20033;-67
2022/05/15 13:15:30;;;;;;;7.70;3.85;;;21.70;63.90;;;;;;5051022;28;20486;-67
2022/05/15 13:17:56;;;;;;;6.45;3.80;;;21.70;63.90;;;;;;5034981;28;20025;-67